sensor_id;sensor_type;location;lat;lon;timestamp;temperature;humidity
42715;DHT22;28351;51.480;5.706;2023-08-30T00:00:18;13.40;99.90
42715;DHT22;28351;51.480;5.706;2023-08-30T00:02:45;13.30;99.90
42715;DHT22;28351;51.480;5.706;2023-08-30T00:05:10;13.20;99.90
42715;DHT22;28351;51.480;5.706;2023-08-30T00:07:36;13.10;99.90
42715;DHT22;28351;51.480;5.706;2023-08-30T00:10:02;13.10;99.90
42715;DHT22;28351;51.480;5.706;2023-08-30T00:12:29;13.00;99.90
42715;DHT22;28351;51.480;5.706;2023-08-30T00:14:55;12.90;99.90
42715;DHT22;28351;51.480;5.706;2023-08-30T00:17:22;12.90;99.90
42715;DHT22;28351;51.480;5.706;2023-08-30T00:19:48;12.80;99.90
42715;DHT22;28351;51.480;5.706;2023-08-30T00:22:14;12.70;99.90
42715;DHT22;28351;51.480;5.706;2023-08-30T00:24:40;12.60;99.90
42715;DHT22;28351;51.480;5.706;2023-08-30T00:27:05;12.60;99.90
42715;DHT22;28351;51.480;5.706;2023-08-30T00:29:31;12.60;99.90
42715;DHT22;28351;51.480;5.706;2023-08-30T00:31:57;12.50;99.90
42715;DHT22;28351;51.480;5.706;2023-08-30T00:34:22;12.50;99.90
42715;DHT22;28351;51.480;5.706;2023-08-30T00:36:48;12.40;99.90
42715;DHT22;28351;51.480;5.706;2023-08-30T00:39:14;12.40;99.90
42715;DHT22;28351;51.480;5.706;2023-08-30T00:41:40;12.40;99.90
42715;DHT22;28351;51.480;5.706;2023-08-30T00:44:06;12.30;99.90
42715;DHT22;28351;51.480;5.706;2023-08-30T00:46:33;12.30;99.90
42715;DHT22;28351;51.480;5.706;2023-08-30T00:49:00;12.20;99.90
42715;DHT22;28351;51.480;5.706;2023-08-30T00:51:26;12.30;99.90
42715;DHT22;28351;51.480;5.706;2023-08-30T00:53:56;12.20;99.90
42715;DHT22;28351;51.480;5.706;2023-08-30T00:56:22;12.30;99.90
42715;DHT22;28351;51.480;5.706;2023-08-30T00:58:50;12.30;99.90
42715;DHT22;28351;51.480;5.706;2023-08-30T01:01:20;12.40;99.90
42715;DHT22;28351;51.480;5.706;2023-08-30T01:03:46;12.40;99.90
42715;DHT22;28351;51.480;5.706;2023-08-30T01:06:12;12.50;99.90
42715;DHT22;28351;51.480;5.706;2023-08-30T01:08:39;12.60;99.90
42715;DHT22;28351;51.480;5.706;2023-08-30T01:13:56;12.60;99.90
42715;DHT22;28351;51.480;5.706;2023-08-30T01:16:23;12.60;99.90
42715;DHT22;28351;51.480;5.706;2023-08-30T01:18:51;12.60;99.90
42715;DHT22;28351;51.480;5.706;2023-08-30T01:21:27;12.60;99.90
42715;DHT22;28351;51.480;5.706;2023-08-30T01:23:59;12.60;99.90
42715;DHT22;28351;51.480;5.706;2023-08-30T01:29:31;12.60;99.90
42715;DHT22;28351;51.480;5.706;2023-08-30T01:32:08;12.50;99.90
42715;DHT22;28351;51.480;5.706;2023-08-30T01:34:38;12.40;99.90
42715;DHT22;28351;51.480;5.706;2023-08-30T01:37:08;12.30;99.90
42715;DHT22;28351;51.480;5.706;2023-08-30T01:39:38;12.20;99.90
42715;DHT22;28351;51.480;5.706;2023-08-30T01:42:07;12.20;99.90
42715;DHT22;28351;51.480;5.706;2023-08-30T01:44:34;12.20;99.90
42715;DHT22;28351;51.480;5.706;2023-08-30T01:47:00;12.10;99.90
42715;DHT22;28351;51.480;5.706;2023-08-30T01:49:29;12.10;99.90
42715;DHT22;28351;51.480;5.706;2023-08-30T01:51:57;12.00;99.90
42715;DHT22;28351;51.480;5.706;2023-08-30T01:54:24;11.90;99.90
42715;DHT22;28351;51.480;5.706;2023-08-30T01:56:50;11.90;99.90
42715;DHT22;28351;51.480;5.706;2023-08-30T01:59:16;11.90;99.90
42715;DHT22;28351;51.480;5.706;2023-08-30T02:01:42;11.80;99.90
42715;DHT22;28351;51.480;5.706;2023-08-30T02:04:07;11.80;99.90
42715;DHT22;28351;51.480;5.706;2023-08-30T02:11:50;11.70;99.90
42715;DHT22;28351;51.480;5.706;2023-08-30T02:14:17;11.60;99.90
42715;DHT22;28351;51.480;5.706;2023-08-30T02:16:46;11.60;99.90
42715;DHT22;28351;51.480;5.706;2023-08-30T02:19:12;11.50;99.90
42715;DHT22;28351;51.480;5.706;2023-08-30T02:21:42;11.50;99.90
42715;DHT22;28351;51.480;5.706;2023-08-30T02:24:08;11.50;99.90
42715;DHT22;28351;51.480;5.706;2023-08-30T02:26:34;11.50;99.90
42715;DHT22;28351;51.480;5.706;2023-08-30T02:28:59;11.50;99.90
42715;DHT22;28351;51.480;5.706;2023-08-30T02:31:25;11.40;99.90
42715;DHT22;28351;51.480;5.706;2023-08-30T02:33:51;11.50;99.90
42715;DHT22;28351;51.480;5.706;2023-08-30T02:36:16;11.40;99.90
42715;DHT22;28351;51.480;5.706;2023-08-30T02:38:42;11.40;99.90
42715;DHT22;28351;51.480;5.706;2023-08-30T02:41:07;11.40;99.90
42715;DHT22;28351;51.480;5.706;2023-08-30T02:43:33;11.40;99.90
42715;DHT22;28351;51.480;5.706;2023-08-30T02:45:59;11.40;99.90
42715;DHT22;28351;51.480;5.706;2023-08-30T02:48:26;11.50;99.90
42715;DHT22;28351;51.480;5.706;2023-08-30T02:50:52;11.50;99.90
42715;DHT22;28351;51.480;5.706;2023-08-30T02:53:17;11.60;99.90
42715;DHT22;28351;51.480;5.706;2023-08-30T02:55:43;11.60;99.90
42715;DHT22;28351;51.480;5.706;2023-08-30T02:58:09;11.70;99.90
42715;DHT22;28351;51.480;5.706;2023-08-30T03:00:37;11.80;99.90
42715;DHT22;28351;51.480;5.706;2023-08-30T03:03:04;11.80;99.90
42715;DHT22;28351;51.480;5.706;2023-08-30T03:05:29;11.90;99.90
42715;DHT22;28351;51.480;5.706;2023-08-30T03:07:56;12.00;99.90
42715;DHT22;28351;51.480;5.706;2023-08-30T03:10:22;12.00;99.90
42715;DHT22;28351;51.480;5.706;2023-08-30T03:12:48;12.10;99.90
42715;DHT22;28351;51.480;5.706;2023-08-30T03:15:14;12.10;99.90
42715;DHT22;28351;51.480;5.706;2023-08-30T03:17:40;12.20;99.90
42715;DHT22;28351;51.480;5.706;2023-08-30T03:20:06;12.20;99.90
42715;DHT22;28351;51.480;5.706;2023-08-30T03:22:32;12.10;99.90
42715;DHT22;28351;51.480;5.706;2023-08-30T03:24:58;12.20;99.90
42715;DHT22;28351;51.480;5.706;2023-08-30T03:27:24;12.20;99.90
42715;DHT22;28351;51.480;5.706;2023-08-30T03:29:49;12.30;99.90
42715;DHT22;28351;51.480;5.706;2023-08-30T03:32:16;12.30;99.90
42715;DHT22;28351;51.480;5.706;2023-08-30T03:34:44;12.30;99.90
42715;DHT22;28351;51.480;5.706;2023-08-30T03:37:11;12.30;99.90
42715;DHT22;28351;51.480;5.706;2023-08-30T03:39:37;12.30;99.90
42715;DHT22;28351;51.480;5.706;2023-08-30T03:42:02;12.30;99.90
42715;DHT22;28351;51.480;5.706;2023-08-30T03:44:28;12.40;99.90
42715;DHT22;28351;51.480;5.706;2023-08-30T03:46:54;12.40;99.90
42715;DHT22;28351;51.480;5.706;2023-08-30T03:49:21;12.50;99.90
42715;DHT22;28351;51.480;5.706;2023-08-30T03:51:47;12.50;99.90
42715;DHT22;28351;51.480;5.706;2023-08-30T03:54:12;12.50;99.90
42715;DHT22;28351;51.480;5.706;2023-08-30T03:56:44;12.50;99.90
42715;DHT22;28351;51.480;5.706;2023-08-30T03:59:11;12.50;99.90
42715;DHT22;28351;51.480;5.706;2023-08-30T04:01:37;12.50;99.90
42715;DHT22;28351;51.480;5.706;2023-08-30T04:04:02;12.60;99.90
42715;DHT22;28351;51.480;5.706;2023-08-30T04:06:28;12.60;99.90
42715;DHT22;28351;51.480;5.706;2023-08-30T04:08:54;12.60;99.90
42715;DHT22;28351;51.480;5.706;2023-08-30T04:11:20;12.50;99.90
42715;DHT22;28351;51.480;5.706;2023-08-30T04:13:45;12.50;99.90
42715;DHT22;28351;51.480;5.706;2023-08-30T04:16:11;12.60;99.90
42715;DHT22;28351;51.480;5.706;2023-08-30T04:18:37;12.50;99.90
42715;DHT22;28351;51.480;5.706;2023-08-30T04:21:02;12.60;99.90
42715;DHT22;28351;51.480;5.706;2023-08-30T04:23:29;12.60;99.90
42715;DHT22;28351;51.480;5.706;2023-08-30T04:25:55;12.50;99.90
42715;DHT22;28351;51.480;5.706;2023-08-30T04:28:21;12.50;99.90
42715;DHT22;28351;51.480;5.706;2023-08-30T04:30:46;12.50;99.90
42715;DHT22;28351;51.480;5.706;2023-08-30T04:33:12;12.50;99.90
42715;DHT22;28351;51.480;5.706;2023-08-30T04:35:38;12.40;99.90
42715;DHT22;28351;51.480;5.706;2023-08-30T04:38:04;12.30;99.90
42715;DHT22;28351;51.480;5.706;2023-08-30T04:40:30;12.30;99.90
42715;DHT22;28351;51.480;5.706;2023-08-30T04:42:58;12.30;99.90
42715;DHT22;28351;51.480;5.706;2023-08-30T04:45:24;12.20;99.90
42715;DHT22;28351;51.480;5.706;2023-08-30T04:47:50;12.10;99.90
42715;DHT22;28351;51.480;5.706;2023-08-30T04:50:16;12.20;99.90
42715;DHT22;28351;51.480;5.706;2023-08-30T04:52:42;12.10;99.90
42715;DHT22;28351;51.480;5.706;2023-08-30T04:55:09;12.00;99.90
42715;DHT22;28351;51.480;5.706;2023-08-30T04:57:34;12.00;99.90
42715;DHT22;28351;51.480;5.706;2023-08-30T05:00:00;12.00;99.90
42715;DHT22;28351;51.480;5.706;2023-08-30T05:02:30;12.10;99.90
42715;DHT22;28351;51.480;5.706;2023-08-30T05:04:55;12.10;99.90
42715;DHT22;28351;51.480;5.706;2023-08-30T05:07:21;12.20;99.90
42715;DHT22;28351;51.480;5.706;2023-08-30T05:09:46;12.30;99.90
42715;DHT22;28351;51.480;5.706;2023-08-30T05:12:12;12.40;99.90
42715;DHT22;28351;51.480;5.706;2023-08-30T05:14:38;12.40;99.90
42715;DHT22;28351;51.480;5.706;2023-08-30T05:17:03;12.50;99.90
42715;DHT22;28351;51.480;5.706;2023-08-30T05:19:29;12.60;99.90
42715;DHT22;28351;51.480;5.706;2023-08-30T05:21:55;12.70;99.90
42715;DHT22;28351;51.480;5.706;2023-08-30T05:24:21;12.70;99.90
42715;DHT22;28351;51.480;5.706;2023-08-30T05:26:47;12.80;99.90
42715;DHT22;28351;51.480;5.706;2023-08-30T05:29:14;12.90;99.90
42715;DHT22;28351;51.480;5.706;2023-08-30T05:31:39;13.00;99.90
42715;DHT22;28351;51.480;5.706;2023-08-30T05:34:05;13.10;99.90
42715;DHT22;28351;51.480;5.706;2023-08-30T05:36:31;13.10;99.90
42715;DHT22;28351;51.480;5.706;2023-08-30T05:38:56;13.20;99.90
42715;DHT22;28351;51.480;5.706;2023-08-30T05:41:22;13.30;99.90
42715;DHT22;28351;51.480;5.706;2023-08-30T05:43:48;13.40;99.90
42715;DHT22;28351;51.480;5.706;2023-08-30T05:46:13;13.50;99.90
42715;DHT22;28351;51.480;5.706;2023-08-30T05:48:41;13.60;99.90
42715;DHT22;28351;51.480;5.706;2023-08-30T05:51:08;13.60;99.90
42715;DHT22;28351;51.480;5.706;2023-08-30T05:53:34;13.70;99.90
42715;DHT22;28351;51.480;5.706;2023-08-30T05:56:00;13.70;99.90
42715;DHT22;28351;51.480;5.706;2023-08-30T05:58:25;13.80;99.90
42715;DHT22;28351;51.480;5.706;2023-08-30T06:00:51;13.80;99.90
42715;DHT22;28351;51.480;5.706;2023-08-30T06:03:17;13.80;99.90
42715;DHT22;28351;51.480;5.706;2023-08-30T06:05:42;13.90;99.90
42715;DHT22;28351;51.480;5.706;2023-08-30T06:08:08;14.00;99.90
42715;DHT22;28351;51.480;5.706;2023-08-30T06:10:35;14.00;99.90
42715;DHT22;28351;51.480;5.706;2023-08-30T06:13:01;14.10;99.90
42715;DHT22;28351;51.480;5.706;2023-08-30T06:15:28;14.20;99.90
42715;DHT22;28351;51.480;5.706;2023-08-30T06:17:53;14.20;99.90
42715;DHT22;28351;51.480;5.706;2023-08-30T06:20:19;14.30;99.90
42715;DHT22;28351;51.480;5.706;2023-08-30T06:22:45;14.40;99.90
42715;DHT22;28351;51.480;5.706;2023-08-30T06:25:10;14.50;99.90
42715;DHT22;28351;51.480;5.706;2023-08-30T06:27:54;14.60;99.90
42715;DHT22;28351;51.480;5.706;2023-08-30T06:30:20;14.70;99.90
42715;DHT22;28351;51.480;5.706;2023-08-30T06:32:46;14.80;99.90
42715;DHT22;28351;51.480;5.706;2023-08-30T06:35:12;14.90;99.90
42715;DHT22;28351;51.480;5.706;2023-08-30T06:37:37;14.90;99.90
42715;DHT22;28351;51.480;5.706;2023-08-30T06:40:03;15.10;99.90
42715;DHT22;28351;51.480;5.706;2023-08-30T06:42:29;15.30;99.90
42715;DHT22;28351;51.480;5.706;2023-08-30T06:44:54;15.40;99.90
42715;DHT22;28351;51.480;5.706;2023-08-30T06:47:21;15.40;99.90
42715;DHT22;28351;51.480;5.706;2023-08-30T06:49:47;15.50;99.90
42715;DHT22;28351;51.480;5.706;2023-08-30T06:52:12;15.50;99.90
42715;DHT22;28351;51.480;5.706;2023-08-30T06:54:40;15.40;99.90
42715;DHT22;28351;51.480;5.706;2023-08-30T06:57:06;15.50;99.90
42715;DHT22;28351;51.480;5.706;2023-08-30T06:59:32;15.60;99.90
42715;DHT22;28351;51.480;5.706;2023-08-30T07:01:58;15.70;99.90
42715;DHT22;28351;51.480;5.706;2023-08-30T07:04:24;15.70;99.90
42715;DHT22;28351;51.480;5.706;2023-08-30T07:06:50;15.60;99.90
42715;DHT22;28351;51.480;5.706;2023-08-30T07:09:16;15.40;99.90
42715;DHT22;28351;51.480;5.706;2023-08-30T07:11:45;15.00;99.90
42715;DHT22;28351;51.480;5.706;2023-08-30T07:14:11;14.80;99.90
42715;DHT22;28351;51.480;5.706;2023-08-30T07:16:38;14.60;99.90
42715;DHT22;28351;51.480;5.706;2023-08-30T07:19:03;14.50;99.90
42715;DHT22;28351;51.480;5.706;2023-08-30T07:21:29;14.50;99.90
42715;DHT22;28351;51.480;5.706;2023-08-30T07:23:55;14.40;99.90
42715;DHT22;28351;51.480;5.706;2023-08-30T07:26:20;14.40;99.90
42715;DHT22;28351;51.480;5.706;2023-08-30T07:28:46;14.30;99.90
42715;DHT22;28351;51.480;5.706;2023-08-30T07:31:12;14.30;99.90
42715;DHT22;28351;51.480;5.706;2023-08-30T07:33:40;14.30;99.90
42715;DHT22;28351;51.480;5.706;2023-08-30T07:36:07;14.10;99.90
42715;DHT22;28351;51.480;5.706;2023-08-30T07:38:33;14.10;99.90
42715;DHT22;28351;51.480;5.706;2023-08-30T07:41:00;14.00;99.90
42715;DHT22;28351;51.480;5.706;2023-08-30T07:43:26;14.00;99.90
42715;DHT22;28351;51.480;5.706;2023-08-30T07:45:51;14.10;99.90
42715;DHT22;28351;51.480;5.706;2023-08-30T07:48:18;14.10;99.90
42715;DHT22;28351;51.480;5.706;2023-08-30T07:50:44;14.10;99.90
42715;DHT22;28351;51.480;5.706;2023-08-30T07:53:09;14.10;99.90
42715;DHT22;28351;51.480;5.706;2023-08-30T07:55:36;14.20;99.90
42715;DHT22;28351;51.480;5.706;2023-08-30T07:58:01;14.20;99.90
42715;DHT22;28351;51.480;5.706;2023-08-30T08:00:29;14.20;99.90
42715;DHT22;28351;51.480;5.706;2023-08-30T08:02:54;14.20;99.90
42715;DHT22;28351;51.480;5.706;2023-08-30T08:05:20;14.10;99.90
42715;DHT22;28351;51.480;5.706;2023-08-30T08:07:49;14.10;99.90
42715;DHT22;28351;51.480;5.706;2023-08-30T08:10:15;14.10;99.90
42715;DHT22;28351;51.480;5.706;2023-08-30T08:12:41;14.10;99.90
42715;DHT22;28351;51.480;5.706;2023-08-30T08:15:06;14.10;99.90
42715;DHT22;28351;51.480;5.706;2023-08-30T08:17:32;14.20;99.90
42715;DHT22;28351;51.480;5.706;2023-08-30T08:19:58;14.10;99.90
42715;DHT22;28351;51.480;5.706;2023-08-30T08:22:23;14.10;99.90
42715;DHT22;28351;51.480;5.706;2023-08-30T08:24:49;14.20;99.90
42715;DHT22;28351;51.480;5.706;2023-08-30T08:27:17;14.20;99.90
42715;DHT22;28351;51.480;5.706;2023-08-30T08:29:42;14.20;99.90
42715;DHT22;28351;51.480;5.706;2023-08-30T08:32:08;14.30;99.90
42715;DHT22;28351;51.480;5.706;2023-08-30T08:34:34;14.20;99.90
42715;DHT22;28351;51.480;5.706;2023-08-30T08:36:59;14.20;99.90
42715;DHT22;28351;51.480;5.706;2023-08-30T08:39:25;14.10;99.90
42715;DHT22;28351;51.480;5.706;2023-08-30T08:41:51;14.20;99.90
42715;DHT22;28351;51.480;5.706;2023-08-30T08:44:21;14.10;99.90
42715;DHT22;28351;51.480;5.706;2023-08-30T08:46:48;14.20;99.90
42715;DHT22;28351;51.480;5.706;2023-08-30T08:49:17;14.30;99.90
42715;DHT22;28351;51.480;5.706;2023-08-30T08:51:43;14.20;99.90
42715;DHT22;28351;51.480;5.706;2023-08-30T08:54:10;14.10;99.90
42715;DHT22;28351;51.480;5.706;2023-08-30T08:56:37;14.10;99.90
42715;DHT22;28351;51.480;5.706;2023-08-30T08:59:03;14.10;99.90
42715;DHT22;28351;51.480;5.706;2023-08-30T09:01:31;14.10;99.90
42715;DHT22;28351;51.480;5.706;2023-08-30T09:03:59;14.10;99.90
42715;DHT22;28351;51.480;5.706;2023-08-30T09:06:25;14.20;99.90
42715;DHT22;28351;51.480;5.706;2023-08-30T09:08:50;14.30;99.90
42715;DHT22;28351;51.480;5.706;2023-08-30T09:11:16;14.40;99.90
42715;DHT22;28351;51.480;5.706;2023-08-30T09:13:45;14.50;99.90
42715;DHT22;28351;51.480;5.706;2023-08-30T09:16:17;14.50;99.90
42715;DHT22;28351;51.480;5.706;2023-08-30T09:18:43;14.50;99.90
42715;DHT22;28351;51.480;5.706;2023-08-30T09:21:15;14.50;99.90
42715;DHT22;28351;51.480;5.706;2023-08-30T09:23:42;14.50;99.90
42715;DHT22;28351;51.480;5.706;2023-08-30T09:26:08;14.50;99.90
42715;DHT22;28351;51.480;5.706;2023-08-30T09:28:42;14.60;99.90
42715;DHT22;28351;51.480;5.706;2023-08-30T09:31:17;14.50;99.90
42715;DHT22;28351;51.480;5.706;2023-08-30T09:33:45;14.60;99.90
42715;DHT22;28351;51.480;5.706;2023-08-30T09:36:10;14.60;99.90
42715;DHT22;28351;51.480;5.706;2023-08-30T09:38:39;14.60;99.90
42715;DHT22;28351;51.480;5.706;2023-08-30T09:41:05;14.70;99.90
42715;DHT22;28351;51.480;5.706;2023-08-30T09:43:32;14.70;99.90
42715;DHT22;28351;51.480;5.706;2023-08-30T09:46:03;14.80;99.90
42715;DHT22;28351;51.480;5.706;2023-08-30T09:48:29;14.90;99.90
42715;DHT22;28351;51.480;5.706;2023-08-30T09:50:56;14.90;99.90
42715;DHT22;28351;51.480;5.706;2023-08-30T09:53:24;15.00;99.90
42715;DHT22;28351;51.480;5.706;2023-08-30T09:55:52;15.00;99.90
42715;DHT22;28351;51.480;5.706;2023-08-30T09:58:29;15.00;99.90
42715;DHT22;28351;51.480;5.706;2023-08-30T10:00:56;15.10;99.90
42715;DHT22;28351;51.480;5.706;2023-08-30T10:03:22;15.30;99.90
42715;DHT22;28351;51.480;5.706;2023-08-30T10:05:48;15.40;99.90
42715;DHT22;28351;51.480;5.706;2023-08-30T10:08:14;15.50;99.90
42715;DHT22;28351;51.480;5.706;2023-08-30T10:10:40;15.70;99.90
42715;DHT22;28351;51.480;5.706;2023-08-30T10:13:06;15.80;99.90
42715;DHT22;28351;51.480;5.706;2023-08-30T10:15:34;16.00;99.90
42715;DHT22;28351;51.480;5.706;2023-08-30T10:18:01;16.20;99.90
42715;DHT22;28351;51.480;5.706;2023-08-30T10:20:28;16.70;99.90
42715;DHT22;28351;51.480;5.706;2023-08-30T10:22:55;17.10;99.90
42715;DHT22;28351;51.480;5.706;2023-08-30T10:25:26;17.50;99.90
42715;DHT22;28351;51.480;5.706;2023-08-30T10:27:53;17.70;99.90
42715;DHT22;28351;51.480;5.706;2023-08-30T10:30:21;17.90;99.90
42715;DHT22;28351;51.480;5.706;2023-08-30T10:32:47;17.80;99.90
42715;DHT22;28351;51.480;5.706;2023-08-30T10:35:14;17.40;99.90
42715;DHT22;28351;51.480;5.706;2023-08-30T10:37:40;17.40;99.90
42715;DHT22;28351;51.480;5.706;2023-08-30T10:40:07;17.80;99.90
42715;DHT22;28351;51.480;5.706;2023-08-30T10:42:33;18.20;99.90
42715;DHT22;28351;51.480;5.706;2023-08-30T10:45:01;18.90;99.90
42715;DHT22;28351;51.480;5.706;2023-08-30T10:47:29;19.10;99.90
42715;DHT22;28351;51.480;5.706;2023-08-30T10:49:59;19.10;99.90
42715;DHT22;28351;51.480;5.706;2023-08-30T10:52:26;18.90;99.90
42715;DHT22;28351;51.480;5.706;2023-08-30T10:54:52;18.80;99.90
42715;DHT22;28351;51.480;5.706;2023-08-30T10:57:25;18.90;99.90
42715;DHT22;28351;51.480;5.706;2023-08-30T11:00:15;19.20;99.90
42715;DHT22;28351;51.480;5.706;2023-08-30T11:02:49;19.20;99.90
42715;DHT22;28351;51.480;5.706;2023-08-30T11:05:16;19.80;99.90
42715;DHT22;28351;51.480;5.706;2023-08-30T11:07:43;20.10;99.90
42715;DHT22;28351;51.480;5.706;2023-08-30T11:10:10;20.30;99.90
42715;DHT22;28351;51.480;5.706;2023-08-30T11:12:35;20.50;99.90
42715;DHT22;28351;51.480;5.706;2023-08-30T11:15:02;20.10;99.90
42715;DHT22;28351;51.480;5.706;2023-08-30T11:17:28;20.50;99.90
42715;DHT22;28351;51.480;5.706;2023-08-30T11:19:58;20.30;99.90
42715;DHT22;28351;51.480;5.706;2023-08-30T11:22:30;20.70;99.90
42715;DHT22;28351;51.480;5.706;2023-08-30T11:24:56;21.30;99.90
42715;DHT22;28351;51.480;5.706;2023-08-30T11:27:21;21.40;99.90
42715;DHT22;28351;51.480;5.706;2023-08-30T11:29:47;21.80;99.90
42715;DHT22;28351;51.480;5.706;2023-08-30T11:32:13;21.80;99.90
42715;DHT22;28351;51.480;5.706;2023-08-30T11:34:38;22.30;99.90
42715;DHT22;28351;51.480;5.706;2023-08-30T11:37:04;22.00;99.90
42715;DHT22;28351;51.480;5.706;2023-08-30T11:39:30;21.70;99.90
42715;DHT22;28351;51.480;5.706;2023-08-30T11:41:56;23.40;99.90
42715;DHT22;28351;51.480;5.706;2023-08-30T11:44:28;23.50;99.90
42715;DHT22;28351;51.480;5.706;2023-08-30T11:47:00;22.70;99.90
42715;DHT22;28351;51.480;5.706;2023-08-30T11:49:27;22.20;99.90
42715;DHT22;28351;51.480;5.706;2023-08-30T11:51:54;21.40;99.90
42715;DHT22;28351;51.480;5.706;2023-08-30T11:54:22;20.90;99.90
42715;DHT22;28351;51.480;5.706;2023-08-30T11:56:49;21.40;99.90
42715;DHT22;28351;51.480;5.706;2023-08-30T11:59:19;21.40;99.90
42715;DHT22;28351;51.480;5.706;2023-08-30T12:01:45;22.20;99.90
42715;DHT22;28351;51.480;5.706;2023-08-30T12:04:11;22.50;99.90
42715;DHT22;28351;51.480;5.706;2023-08-30T12:06:37;23.40;99.90
42715;DHT22;28351;51.480;5.706;2023-08-30T12:09:02;22.00;99.90
42715;DHT22;28351;51.480;5.706;2023-08-30T12:11:31;20.90;99.90
42715;DHT22;28351;51.480;5.706;2023-08-30T12:14:02;20.00;99.90
42715;DHT22;28351;51.480;5.706;2023-08-30T12:16:27;19.10;99.90
42715;DHT22;28351;51.480;5.706;2023-08-30T12:18:53;18.60;99.90
42715;DHT22;28351;51.480;5.706;2023-08-30T12:21:19;18.40;99.90
42715;DHT22;28351;51.480;5.706;2023-08-30T12:23:44;18.30;99.90
42715;DHT22;28351;51.480;5.706;2023-08-30T12:26:10;18.40;99.90
42715;DHT22;28351;51.480;5.706;2023-08-30T12:28:41;18.60;99.90
42715;DHT22;28351;51.480;5.706;2023-08-30T12:31:09;18.80;99.90
42715;DHT22;28351;51.480;5.706;2023-08-30T12:33:37;20.20;99.90
42715;DHT22;28351;51.480;5.706;2023-08-30T12:36:03;22.60;99.90
42715;DHT22;28351;51.480;5.706;2023-08-30T12:38:29;24.10;99.90
42715;DHT22;28351;51.480;5.706;2023-08-30T12:40:55;24.90;99.90
42715;DHT22;28351;51.480;5.706;2023-08-30T12:43:22;24.00;98.80
42715;DHT22;28351;51.480;5.706;2023-08-30T12:45:48;23.30;99.80
42715;DHT22;28351;51.480;5.706;2023-08-30T12:48:16;22.10;99.90
42715;DHT22;28351;51.480;5.706;2023-08-30T12:50:44;21.10;99.90
42715;DHT22;28351;51.480;5.706;2023-08-30T12:53:10;21.90;99.90
42715;DHT22;28351;51.480;5.706;2023-08-30T12:55:36;21.90;99.90
42715;DHT22;28351;51.480;5.706;2023-08-30T12:58:06;22.50;99.90
42715;DHT22;28351;51.480;5.706;2023-08-30T13:00:32;22.40;99.90
42715;DHT22;28351;51.480;5.706;2023-08-30T13:02:58;21.70;99.90
42715;DHT22;28351;51.480;5.706;2023-08-30T13:05:24;20.80;99.90
42715;DHT22;28351;51.480;5.706;2023-08-30T13:07:50;20.00;99.90
42715;DHT22;28351;51.480;5.706;2023-08-30T13:10:15;19.80;99.90
42715;DHT22;28351;51.480;5.706;2023-08-30T13:12:42;19.70;99.90
42715;DHT22;28351;51.480;5.706;2023-08-30T13:15:08;19.40;99.90
42715;DHT22;28351;51.480;5.706;2023-08-30T13:17:34;19.10;99.90
42715;DHT22;28351;51.480;5.706;2023-08-30T13:20:00;19.00;99.90
42715;DHT22;28351;51.480;5.706;2023-08-30T13:22:26;19.00;99.90
42715;DHT22;28351;51.480;5.706;2023-08-30T13:24:52;19.80;99.90
42715;DHT22;28351;51.480;5.706;2023-08-30T13:27:18;21.20;99.90
42715;DHT22;28351;51.480;5.706;2023-08-30T13:29:44;23.70;99.90
42715;DHT22;28351;51.480;5.706;2023-08-30T13:32:10;25.40;96.40
42715;DHT22;28351;51.480;5.706;2023-08-30T13:34:36;26.80;94.10
42715;DHT22;28351;51.480;5.706;2023-08-30T13:37:02;25.20;93.20
42715;DHT22;28351;51.480;5.706;2023-08-30T13:39:28;23.40;94.60
42715;DHT22;28351;51.480;5.706;2023-08-30T13:41:54;22.20;96.40
42715;DHT22;28351;51.480;5.706;2023-08-30T13:44:20;21.60;98.30
42715;DHT22;28351;51.480;5.706;2023-08-30T13:46:45;22.30;98.00
42715;DHT22;28351;51.480;5.706;2023-08-30T13:49:14;22.60;97.00
42715;DHT22;28351;51.480;5.706;2023-08-30T13:51:41;21.60;97.70
42715;DHT22;28351;51.480;5.706;2023-08-30T13:54:06;22.90;98.70
42715;DHT22;28351;51.480;5.706;2023-08-30T13:56:32;24.30;95.70
42715;DHT22;28351;51.480;5.706;2023-08-30T13:58:58;25.70;95.20
42715;DHT22;28351;51.480;5.706;2023-08-30T14:01:24;26.80;93.20
42715;DHT22;28351;51.480;5.706;2023-08-30T14:03:49;25.90;92.00
42715;DHT22;28351;51.480;5.706;2023-08-30T14:06:15;24.80;93.90
42715;DHT22;28351;51.480;5.706;2023-08-30T14:08:43;25.10;92.90
42715;DHT22;28351;51.480;5.706;2023-08-30T14:11:08;25.60;94.10
42715;DHT22;28351;51.480;5.706;2023-08-30T14:13:34;26.30;91.80
42715;DHT22;28351;51.480;5.706;2023-08-30T14:16:01;25.40;92.40
42715;DHT22;28351;51.480;5.706;2023-08-30T14:18:28;23.40;94.00
42715;DHT22;28351;51.480;5.706;2023-08-30T14:21:00;22.80;95.10
42715;DHT22;28351;51.480;5.706;2023-08-30T14:23:27;24.40;94.30
42715;DHT22;28351;51.480;5.706;2023-08-30T14:26:01;25.70;93.70
42715;DHT22;28351;51.480;5.706;2023-08-30T14:28:27;26.20;91.70
42715;DHT22;28351;51.480;5.706;2023-08-30T14:30:53;26.90;91.20
42715;DHT22;28351;51.480;5.706;2023-08-30T14:33:19;26.20;89.20
42715;DHT22;28351;51.480;5.706;2023-08-30T14:35:46;25.90;91.00
42715;DHT22;28351;51.480;5.706;2023-08-30T14:38:12;25.40;90.60
42715;DHT22;28351;51.480;5.706;2023-08-30T14:40:37;25.70;91.00
42715;DHT22;28351;51.480;5.706;2023-08-30T14:43:04;25.90;91.00
42715;DHT22;28351;51.480;5.706;2023-08-30T14:45:30;26.50;90.40
42715;DHT22;28351;51.480;5.706;2023-08-30T14:47:55;25.70;88.90
42715;DHT22;28351;51.480;5.706;2023-08-30T14:50:21;23.60;91.10
42715;DHT22;28351;51.480;5.706;2023-08-30T14:52:47;22.10;93.50
42715;DHT22;28351;51.480;5.706;2023-08-30T14:55:12;20.80;94.80
42715;DHT22;28351;51.480;5.706;2023-08-30T14:57:38;20.40;95.60
42715;DHT22;28351;51.480;5.706;2023-08-30T15:00:05;21.90;95.40
42715;DHT22;28351;51.480;5.706;2023-08-30T15:02:31;23.60;93.40
42715;DHT22;28351;51.480;5.706;2023-08-30T15:04:56;24.20;92.50
42715;DHT22;28351;51.480;5.706;2023-08-30T15:07:22;24.50;92.00
42715;DHT22;28351;51.480;5.706;2023-08-30T15:09:48;24.50;92.20
42715;DHT22;28351;51.480;5.706;2023-08-30T15:12:15;24.10;93.70
42715;DHT22;28351;51.480;5.706;2023-08-30T15:14:41;24.30;92.40
42715;DHT22;28351;51.480;5.706;2023-08-30T15:17:08;23.20;91.70
42715;DHT22;28351;51.480;5.706;2023-08-30T15:19:35;22.80;92.50
42715;DHT22;28351;51.480;5.706;2023-08-30T15:22:00;21.40;94.30
42715;DHT22;28351;51.480;5.706;2023-08-30T15:24:26;21.10;95.10
42715;DHT22;28351;51.480;5.706;2023-08-30T15:26:52;20.60;96.20
42715;DHT22;28351;51.480;5.706;2023-08-30T15:29:17;20.60;96.30
42715;DHT22;28351;51.480;5.706;2023-08-30T15:31:43;20.40;97.30
42715;DHT22;28351;51.480;5.706;2023-08-30T15:34:10;21.00;96.90
42715;DHT22;28351;51.480;5.706;2023-08-30T15:36:36;21.80;96.40